sensor_id;sensor_type;location;lat;lon;timestamp;P1;durP1;ratioP1;P2;durP2;ratioP2
68821;SDS011;55834;50.870;4.606;2024-01-25T00:01:17;23.20;;;5.63;;
68821;SDS011;55834;50.870;4.606;2024-01-25T00:03:43;16.73;;;4.47;;
68821;SDS011;55834;50.870;4.606;2024-01-25T00:06:08;20.97;;;4.60;;
68821;SDS011;55834;50.870;4.606;2024-01-25T00:08:34;24.65;;;4.53;;
68821;SDS011;55834;50.870;4.606;2024-01-25T00:11:00;24.85;;;5.32;;
68821;SDS011;55834;50.870;4.606;2024-01-25T00:13:26;37.13;;;5.68;;
68821;SDS011;55834;50.870;4.606;2024-01-25T00:15:52;30.92;;;5.13;;
68821;SDS011;55834;50.870;4.606;2024-01-25T00:18:17;21.17;;;6.25;;
68821;SDS011;55834;50.870;4.606;2024-01-25T00:20:42;26.33;;;4.85;;
68821;SDS011;55834;50.870;4.606;2024-01-25T00:23:08;34.90;;;6.07;;
68821;SDS011;55834;50.870;4.606;2024-01-25T00:25:33;22.40;;;3.50;;
68821;SDS011;55834;50.870;4.606;2024-01-25T00:27:59;22.40;;;3.90;;
68821;SDS011;55834;50.870;4.606;2024-01-25T00:30:24;29.07;;;4.87;;
68821;SDS011;55834;50.870;4.606;2024-01-25T00:32:50;27.63;;;4.45;;
68821;SDS011;55834;50.870;4.606;2024-01-25T00:35:15;25.27;;;5.03;;
68821;SDS011;55834;50.870;4.606;2024-01-25T00:37:41;24.67;;;4.70;;
68821;SDS011;55834;50.870;4.606;2024-01-25T00:40:07;22.00;;;5.97;;
68821;SDS011;55834;50.870;4.606;2024-01-25T00:42:37;21.38;;;5.25;;
68821;SDS011;55834;50.870;4.606;2024-01-25T00:45:09;26.70;;;5.15;;
68821;SDS011;55834;50.870;4.606;2024-01-25T00:47:36;17.80;;;5.22;;
68821;SDS011;55834;50.870;4.606;2024-01-25T00:50:02;26.80;;;6.50;;
68821;SDS011;55834;50.870;4.606;2024-01-25T00:52:28;23.80;;;4.00;;
68821;SDS011;55834;50.870;4.606;2024-01-25T00:54:53;19.25;;;4.90;;
68821;SDS011;55834;50.870;4.606;2024-01-25T00:57:19;28.30;;;5.85;;
68821;SDS011;55834;50.870;4.606;2024-01-25T00:59:45;22.33;;;5.15;;
68821;SDS011;55834;50.870;4.606;2024-01-25T01:02:11;31.02;;;8.30;;
68821;SDS011;55834;50.870;4.606;2024-01-25T01:04:38;32.50;;;5.47;;
68821;SDS011;55834;50.870;4.606;2024-01-25T01:07:04;21.58;;;5.63;;
68821;SDS011;55834;50.870;4.606;2024-01-25T01:09:30;24.90;;;5.72;;
68821;SDS011;55834;50.870;4.606;2024-01-25T01:11:55;29.00;;;4.95;;
68821;SDS011;55834;50.870;4.606;2024-01-25T01:14:21;22.27;;;3.88;;
68821;SDS011;55834;50.870;4.606;2024-01-25T01:16:46;19.52;;;4.47;;
68821;SDS011;55834;50.870;4.606;2024-01-25T01:19:12;21.20;;;4.82;;
68821;SDS011;55834;50.870;4.606;2024-01-25T01:21:37;28.75;;;4.72;;
68821;SDS011;55834;50.870;4.606;2024-01-25T01:24:03;18.25;;;3.28;;
68821;SDS011;55834;50.870;4.606;2024-01-25T01:26:29;13.88;;;4.40;;
68821;SDS011;55834;50.870;4.606;2024-01-25T01:28:55;26.98;;;5.30;;
68821;SDS011;55834;50.870;4.606;2024-01-25T01:31:20;22.10;;;3.55;;
68821;SDS011;55834;50.870;4.606;2024-01-25T01:33:46;20.80;;;5.43;;
68821;SDS011;55834;50.870;4.606;2024-01-25T01:36:11;18.48;;;5.75;;
68821;SDS011;55834;50.870;4.606;2024-01-25T01:38:37;23.10;;;4.63;;
68821;SDS011;55834;50.870;4.606;2024-01-25T01:41:02;28.50;;;6.60;;
68821;SDS011;55834;50.870;4.606;2024-01-25T01:43:28;20.67;;;4.03;;
68821;SDS011;55834;50.870;4.606;2024-01-25T01:45:53;21.37;;;4.23;;
68821;SDS011;55834;50.870;4.606;2024-01-25T01:48:25;25.10;;;4.80;;
68821;SDS011;55834;50.870;4.606;2024-01-25T01:50:51;25.77;;;5.03;;
68821;SDS011;55834;50.870;4.606;2024-01-25T01:53:16;22.25;;;5.00;;
68821;SDS011;55834;50.870;4.606;2024-01-25T01:55:42;16.73;;;4.25;;
68821;SDS011;55834;50.870;4.606;2024-01-25T01:58:08;22.85;;;5.63;;
68821;SDS011;55834;50.870;4.606;2024-01-25T02:00:34;20.08;;;3.45;;
68821;SDS011;55834;50.870;4.606;2024-01-25T02:03:02;19.50;;;4.03;;
68821;SDS011;55834;50.870;4.606;2024-01-25T02:05:28;27.95;;;5.00;;
68821;SDS011;55834;50.870;4.606;2024-01-25T02:07:53;23.60;;;4.43;;
68821;SDS011;55834;50.870;4.606;2024-01-25T02:10:19;23.42;;;4.03;;
68821;SDS011;55834;50.870;4.606;2024-01-25T02:12:45;15.38;;;4.07;;
68821;SDS011;55834;50.870;4.606;2024-01-25T02:15:10;18.08;;;3.38;;
68821;SDS011;55834;50.870;4.606;2024-01-25T02:17:35;28.20;;;4.90;;
68821;SDS011;55834;50.870;4.606;2024-01-25T02:20:01;16.40;;;4.55;;
68821;SDS011;55834;50.870;4.606;2024-01-25T02:22:28;23.65;;;4.85;;
68821;SDS011;55834;50.870;4.606;2024-01-25T02:24:53;19.65;;;5.25;;
68821;SDS011;55834;50.870;4.606;2024-01-25T02:27:20;23.00;;;6.28;;
68821;SDS011;55834;50.870;4.606;2024-01-25T02:29:45;19.13;;;4.38;;
68821;SDS011;55834;50.870;4.606;2024-01-25T02:32:10;18.20;;;4.82;;
68821;SDS011;55834;50.870;4.606;2024-01-25T02:34:36;18.20;;;5.03;;
68821;SDS011;55834;50.870;4.606;2024-01-25T02:37:01;21.88;;;4.88;;
68821;SDS011;55834;50.870;4.606;2024-01-25T02:39:27;19.40;;;5.32;;
68821;SDS011;55834;50.870;4.606;2024-01-25T02:41:53;17.15;;;4.15;;
68821;SDS011;55834;50.870;4.606;2024-01-25T02:44:18;13.13;;;3.07;;
68821;SDS011;55834;50.870;4.606;2024-01-25T02:46:43;22.67;;;5.82;;
68821;SDS011;55834;50.870;4.606;2024-01-25T02:49:10;14.75;;;3.30;;
68821;SDS011;55834;50.870;4.606;2024-01-25T02:51:35;10.23;;;3.20;;
68821;SDS011;55834;50.870;4.606;2024-01-25T02:54:01;21.33;;;4.45;;
68821;SDS011;55834;50.870;4.606;2024-01-25T02:56:27;16.58;;;4.03;;
68821;SDS011;55834;50.870;4.606;2024-01-25T02:58:58;21.20;;;3.67;;
68821;SDS011;55834;50.870;4.606;2024-01-25T03:01:24;17.50;;;5.35;;
68821;SDS011;55834;50.870;4.606;2024-01-25T03:03:49;17.65;;;3.92;;
68821;SDS011;55834;50.870;4.606;2024-01-25T03:06:15;20.00;;;5.35;;
68821;SDS011;55834;50.870;4.606;2024-01-25T03:08:40;18.33;;;4.33;;
68821;SDS011;55834;50.870;4.606;2024-01-25T03:11:06;20.35;;;4.50;;
68821;SDS011;55834;50.870;4.606;2024-01-25T03:13:31;15.32;;;3.47;;
68821;SDS011;55834;50.870;4.606;2024-01-25T03:15:57;16.67;;;4.68;;
68821;SDS011;55834;50.870;4.606;2024-01-25T03:18:22;16.48;;;5.22;;
68821;SDS011;55834;50.870;4.606;2024-01-25T03:20:48;20.63;;;3.60;;
68821;SDS011;55834;50.870;4.606;2024-01-25T03:23:16;24.38;;;4.50;;
68821;SDS011;55834;50.870;4.606;2024-01-25T03:25:41;18.15;;;4.45;;
68821;SDS011;55834;50.870;4.606;2024-01-25T03:28:07;18.83;;;4.55;;
68821;SDS011;55834;50.870;4.606;2024-01-25T03:30:34;18.63;;;3.35;;
68821;SDS011;55834;50.870;4.606;2024-01-25T03:33:00;17.80;;;3.25;;
68821;SDS011;55834;50.870;4.606;2024-01-25T03:35:25;17.17;;;3.50;;
68821;SDS011;55834;50.870;4.606;2024-01-25T03:37:51;12.38;;;4.63;;
68821;SDS011;55834;50.870;4.606;2024-01-25T03:40:16;17.73;;;5.17;;
68821;SDS011;55834;50.870;4.606;2024-01-25T03:42:41;22.08;;;4.40;;
68821;SDS011;55834;50.870;4.606;2024-01-25T03:45:07;17.53;;;3.93;;
68821;SDS011;55834;50.870;4.606;2024-01-25T03:47:32;20.15;;;3.53;;
68821;SDS011;55834;50.870;4.606;2024-01-25T03:49:58;15.65;;;4.30;;
68821;SDS011;55834;50.870;4.606;2024-01-25T03:52:25;16.83;;;4.78;;
68821;SDS011;55834;50.870;4.606;2024-01-25T03:54:50;18.48;;;3.92;;
68821;SDS011;55834;50.870;4.606;2024-01-25T03:57:15;17.50;;;4.67;;
68821;SDS011;55834;50.870;4.606;2024-01-25T03:59:41;17.25;;;4.43;;
68821;SDS011;55834;50.870;4.606;2024-01-25T04:02:06;19.98;;;4.03;;
68821;SDS011;55834;50.870;4.606;2024-01-25T04:04:32;14.23;;;3.00;;
68821;SDS011;55834;50.870;4.606;2024-01-25T04:06:57;20.20;;;4.57;;
68821;SDS011;55834;50.870;4.606;2024-01-25T04:09:23;24.35;;;4.65;;
68821;SDS011;55834;50.870;4.606;2024-01-25T04:11:48;18.87;;;3.40;;
68821;SDS011;55834;50.870;4.606;2024-01-25T04:14:13;13.57;;;4.00;;
68821;SDS011;55834;50.870;4.606;2024-01-25T04:16:40;18.02;;;4.05;;
68821;SDS011;55834;50.870;4.606;2024-01-25T04:19:06;15.02;;;3.67;;
68821;SDS011;55834;50.870;4.606;2024-01-25T04:21:31;15.55;;;3.88;;
68821;SDS011;55834;50.870;4.606;2024-01-25T04:23:57;16.85;;;4.80;;
68821;SDS011;55834;50.870;4.606;2024-01-25T04:26:23;18.70;;;3.60;;
68821;SDS011;55834;50.870;4.606;2024-01-25T04:28:49;16.90;;;2.00;;
68821;SDS011;55834;50.870;4.606;2024-01-25T04:31:14;14.45;;;3.45;;
68821;SDS011;55834;50.870;4.606;2024-01-25T04:33:40;20.80;;;3.88;;
68821;SDS011;55834;50.870;4.606;2024-01-25T04:36:05;16.80;;;4.38;;
68821;SDS011;55834;50.870;4.606;2024-01-25T04:38:31;21.23;;;5.00;;
68821;SDS011;55834;50.870;4.606;2024-01-25T04:40:57;9.13;;;3.05;;
68821;SDS011;55834;50.870;4.606;2024-01-25T04:43:22;16.52;;;4.45;;
68821;SDS011;55834;50.870;4.606;2024-01-25T04:45:47;17.43;;;3.67;;
68821;SDS011;55834;50.870;4.606;2024-01-25T04:48:13;16.07;;;3.33;;
68821;SDS011;55834;50.870;4.606;2024-01-25T04:50:38;14.05;;;3.88;;
68821;SDS011;55834;50.870;4.606;2024-01-25T04:53:04;15.30;;;3.05;;
68821;SDS011;55834;50.870;4.606;2024-01-25T04:55:29;16.05;;;3.55;;
68821;SDS011;55834;50.870;4.606;2024-01-25T04:57:55;19.40;;;4.03;;
68821;SDS011;55834;50.870;4.606;2024-01-25T05:00:21;18.55;;;3.67;;
68821;SDS011;55834;50.870;4.606;2024-01-25T05:02:47;18.10;;;4.88;;
68821;SDS011;55834;50.870;4.606;2024-01-25T05:05:13;17.42;;;3.40;;
68821;SDS011;55834;50.870;4.606;2024-01-25T05:07:38;18.02;;;3.78;;
68821;SDS011;55834;50.870;4.606;2024-01-25T05:10:04;20.55;;;3.35;;
68821;SDS011;55834;50.870;4.606;2024-01-25T05:12:30;18.73;;;4.22;;
68821;SDS011;55834;50.870;4.606;2024-01-25T05:14:55;20.93;;;3.70;;
68821;SDS011;55834;50.870;4.606;2024-01-25T05:17:20;21.80;;;6.90;;
68821;SDS011;55834;50.870;4.606;2024-01-25T05:19:46;15.07;;;4.73;;
68821;SDS011;55834;50.870;4.606;2024-01-25T05:22:11;18.53;;;5.13;;
68821;SDS011;55834;50.870;4.606;2024-01-25T05:24:36;13.45;;;3.22;;
68821;SDS011;55834;50.870;4.606;2024-01-25T05:27:02;18.23;;;4.82;;
68821;SDS011;55834;50.870;4.606;2024-01-25T05:29:28;16.58;;;5.75;;
68821;SDS011;55834;50.870;4.606;2024-01-25T05:31:53;20.33;;;4.95;;
68821;SDS011;55834;50.870;4.606;2024-01-25T05:34:18;18.00;;;5.40;;
68821;SDS011;55834;50.870;4.606;2024-01-25T05:36:44;13.07;;;4.53;;
68821;SDS011;55834;50.870;4.606;2024-01-25T05:39:09;23.47;;;5.70;;
68821;SDS011;55834;50.870;4.606;2024-01-25T05:41:35;19.40;;;5.33;;
68821;SDS011;55834;50.870;4.606;2024-01-25T05:44:00;18.58;;;5.50;;
68821;SDS011;55834;50.870;4.606;2024-01-25T05:46:26;16.67;;;5.53;;
68821;SDS011;55834;50.870;4.606;2024-01-25T05:48:51;14.27;;;5.43;;
68821;SDS011;55834;50.870;4.606;2024-01-25T05:51:17;15.25;;;5.45;;
68821;SDS011;55834;50.870;4.606;2024-01-25T05:53:42;16.10;;;5.38;;
68821;SDS011;55834;50.870;4.606;2024-01-25T05:56:08;21.27;;;6.47;;
68821;SDS011;55834;50.870;4.606;2024-01-25T05:58:33;20.73;;;6.78;;
68821;SDS011;55834;50.870;4.606;2024-01-25T06:00:59;17.77;;;3.78;;
68821;SDS011;55834;50.870;4.606;2024-01-25T06:03:24;13.50;;;4.88;;
68821;SDS011;55834;50.870;4.606;2024-01-25T06:05:49;18.38;;;6.00;;
68821;SDS011;55834;50.870;4.606;2024-01-25T06:08:15;23.95;;;8.00;;
68821;SDS011;55834;50.870;4.606;2024-01-25T06:10:41;19.63;;;5.38;;
68821;SDS011;55834;50.870;4.606;2024-01-25T06:13:06;16.42;;;5.78;;
68821;SDS011;55834;50.870;4.606;2024-01-25T06:15:31;22.20;;;7.93;;
68821;SDS011;55834;50.870;4.606;2024-01-25T06:17:57;24.55;;;8.73;;
68821;SDS011;55834;50.870;4.606;2024-01-25T06:20:22;20.45;;;5.63;;
68821;SDS011;55834;50.870;4.606;2024-01-25T06:22:48;16.90;;;6.13;;
68821;SDS011;55834;50.870;4.606;2024-01-25T06:25:13;11.98;;;5.00;;
68821;SDS011;55834;50.870;4.606;2024-01-25T06:27:39;12.50;;;4.53;;
68821;SDS011;55834;50.870;4.606;2024-01-25T06:30:05;17.42;;;5.68;;
68821;SDS011;55834;50.870;4.606;2024-01-25T06:32:31;18.77;;;5.43;;
68821;SDS011;55834;50.870;4.606;2024-01-25T06:34:56;18.92;;;7.78;;
68821;SDS011;55834;50.870;4.606;2024-01-25T06:37:22;15.40;;;5.15;;
68821;SDS011;55834;50.870;4.606;2024-01-25T06:39:47;16.63;;;6.57;;
68821;SDS011;55834;50.870;4.606;2024-01-25T06:42:12;23.58;;;9.35;;
68821;SDS011;55834;50.870;4.606;2024-01-25T06:44:38;17.38;;;6.63;;
68821;SDS011;55834;50.870;4.606;2024-01-25T06:47:03;20.77;;;8.15;;
68821;SDS011;55834;50.870;4.606;2024-01-25T06:49:29;16.33;;;6.35;;
68821;SDS011;55834;50.870;4.606;2024-01-25T06:51:54;14.93;;;5.68;;
68821;SDS011;55834;50.870;4.606;2024-01-25T06:54:19;13.67;;;5.97;;
68821;SDS011;55834;50.870;4.606;2024-01-25T06:56:46;13.38;;;3.97;;
68821;SDS011;55834;50.870;4.606;2024-01-25T06:59:11;19.10;;;5.90;;
68821;SDS011;55834;50.870;4.606;2024-01-25T07:01:37;16.70;;;5.23;;
68821;SDS011;55834;50.870;4.606;2024-01-25T07:04:02;13.27;;;4.22;;
68821;SDS011;55834;50.870;4.606;2024-01-25T07:06:28;21.92;;;6.15;;
68821;SDS011;55834;50.870;4.606;2024-01-25T07:08:54;12.60;;;4.97;;
68821;SDS011;55834;50.870;4.606;2024-01-25T07:11:19;21.25;;;6.43;;
68821;SDS011;55834;50.870;4.606;2024-01-25T07:13:45;13.33;;;4.07;;
68821;SDS011;55834;50.870;4.606;2024-01-25T07:16:11;17.42;;;5.35;;
68821;SDS011;55834;50.870;4.606;2024-01-25T07:18:36;14.30;;;3.80;;
68821;SDS011;55834;50.870;4.606;2024-01-25T07:21:02;16.55;;;2.85;;
68821;SDS011;55834;50.870;4.606;2024-01-25T07:23:29;15.38;;;5.50;;
68821;SDS011;55834;50.870;4.606;2024-01-25T07:25:55;17.92;;;4.95;;
68821;SDS011;55834;50.870;4.606;2024-01-25T07:28:20;13.48;;;4.35;;
68821;SDS011;55834;50.870;4.606;2024-01-25T07:30:48;14.52;;;4.68;;
68821;SDS011;55834;50.870;4.606;2024-01-25T07:33:15;10.10;;;4.30;;
68821;SDS011;55834;50.870;4.606;2024-01-25T07:35:41;13.55;;;4.75;;
68821;SDS011;55834;50.870;4.606;2024-01-25T07:38:13;14.10;;;4.25;;
68821;SDS011;55834;50.870;4.606;2024-01-25T07:40:39;11.68;;;4.28;;
68821;SDS011;55834;50.870;4.606;2024-01-25T07:43:05;15.10;;;4.65;;
68821;SDS011;55834;50.870;4.606;2024-01-25T07:45:31;8.43;;;2.97;;
68821;SDS011;55834;50.870;4.606;2024-01-25T07:47:57;12.10;;;4.65;;
68821;SDS011;55834;50.870;4.606;2024-01-25T07:50:22;13.77;;;4.80;;
68821;SDS011;55834;50.870;4.606;2024-01-25T07:52:47;12.33;;;5.17;;
68821;SDS011;55834;50.870;4.606;2024-01-25T07:55:15;7.88;;;5.85;;
68821;SDS011;55834;50.870;4.606;2024-01-25T07:57:40;12.65;;;4.18;;
68821;SDS011;55834;50.870;4.606;2024-01-25T08:00:06;9.82;;;5.35;;
68821;SDS011;55834;50.870;4.606;2024-01-25T08:04:59;7.80;;;4.37;;
68821;SDS011;55834;50.870;4.606;2024-01-25T08:07:24;7.73;;;4.43;;
68821;SDS011;55834;50.870;4.606;2024-01-25T08:09:49;8.40;;;4.53;;
68821;SDS011;55834;50.870;4.606;2024-01-25T08:12:17;6.75;;;5.10;;
68821;SDS011;55834;50.870;4.606;2024-01-25T08:14:43;9.90;;;5.80;;
68821;SDS011;55834;50.870;4.606;2024-01-25T08:17:09;8.27;;;4.00;;
68821;SDS011;55834;50.870;4.606;2024-01-25T08:19:35;10.27;;;5.43;;
68821;SDS011;55834;50.870;4.606;2024-01-25T08:22:00;6.45;;;4.50;;
68821;SDS011;55834;50.870;4.606;2024-01-25T08:24:26;8.30;;;4.67;;
68821;SDS011;55834;50.870;4.606;2024-01-25T08:26:51;5.37;;;4.07;;
68821;SDS011;55834;50.870;4.606;2024-01-25T08:29:16;7.93;;;5.20;;
68821;SDS011;55834;50.870;4.606;2024-01-25T08:31:42;9.32;;;3.75;;
68821;SDS011;55834;50.870;4.606;2024-01-25T08:34:07;7.33;;;5.07;;
68821;SDS011;55834;50.870;4.606;2024-01-25T08:36:32;9.27;;;4.97;;
68821;SDS011;55834;50.870;4.606;2024-01-25T08:38:58;7.80;;;5.28;;
68821;SDS011;55834;50.870;4.606;2024-01-25T08:41:23;8.90;;;5.25;;
68821;SDS011;55834;50.870;4.606;2024-01-25T08:43:49;14.38;;;5.55;;
68821;SDS011;55834;50.870;4.606;2024-01-25T08:46:14;7.22;;;4.63;;
68821;SDS011;55834;50.870;4.606;2024-01-25T08:48:40;12.07;;;5.43;;
68821;SDS011;55834;50.870;4.606;2024-01-25T08:51:06;11.20;;;5.45;;
68821;SDS011;55834;50.870;4.606;2024-01-25T08:53:33;11.27;;;5.10;;
68821;SDS011;55834;50.870;4.606;2024-01-25T08:55:59;10.83;;;5.00;;
68821;SDS011;55834;50.870;4.606;2024-01-25T08:58:24;10.50;;;5.72;;
68821;SDS011;55834;50.870;4.606;2024-01-25T09:00:50;11.00;;;6.43;;
68821;SDS011;55834;50.870;4.606;2024-01-25T09:03:15;10.83;;;5.63;;
68821;SDS011;55834;50.870;4.606;2024-01-25T09:05:40;10.80;;;6.27;;
68821;SDS011;55834;50.870;4.606;2024-01-25T09:08:10;9.20;;;4.72;;
68821;SDS011;55834;50.870;4.606;2024-01-25T09:10:37;10.15;;;4.65;;
68821;SDS011;55834;50.870;4.606;2024-01-25T09:13:04;13.23;;;6.40;;
68821;SDS011;55834;50.870;4.606;2024-01-25T09:15:29;10.98;;;5.32;;
68821;SDS011;55834;50.870;4.606;2024-01-25T09:17:54;11.68;;;5.35;;
68821;SDS011;55834;50.870;4.606;2024-01-25T09:20:20;11.73;;;5.13;;
68821;SDS011;55834;50.870;4.606;2024-01-25T09:22:45;12.77;;;6.17;;
68821;SDS011;55834;50.870;4.606;2024-01-25T09:25:11;11.82;;;5.32;;
68821;SDS011;55834;50.870;4.606;2024-01-25T09:27:37;15.73;;;8.23;;
68821;SDS011;55834;50.870;4.606;2024-01-25T09:30:04;17.17;;;6.40;;
68821;SDS011;55834;50.870;4.606;2024-01-25T09:32:30;21.58;;;7.93;;
68821;SDS011;55834;50.870;4.606;2024-01-25T09:34:55;16.70;;;7.47;;
68821;SDS011;55834;50.870;4.606;2024-01-25T09:37:21;17.90;;;7.07;;
68821;SDS011;55834;50.870;4.606;2024-01-25T09:39:48;15.55;;;7.55;;
68821;SDS011;55834;50.870;4.606;2024-01-25T09:42:14;19.60;;;7.22;;
68821;SDS011;55834;50.870;4.606;2024-01-25T09:44:39;13.37;;;6.37;;
68821;SDS011;55834;50.870;4.606;2024-01-25T09:47:06;16.15;;;7.32;;
68821;SDS011;55834;50.870;4.606;2024-01-25T09:49:34;22.58;;;7.70;;
68821;SDS011;55834;50.870;4.606;2024-01-25T09:52:01;19.52;;;5.80;;
68821;SDS011;55834;50.870;4.606;2024-01-25T09:54:32;16.48;;;6.97;;
68821;SDS011;55834;50.870;4.606;2024-01-25T09:57:00;18.50;;;7.70;;
68821;SDS011;55834;50.870;4.606;2024-01-25T09:59:31;15.23;;;7.43;;
68821;SDS011;55834;50.870;4.606;2024-01-25T10:01:57;20.52;;;7.75;;
68821;SDS011;55834;50.870;4.606;2024-01-25T10:04:24;17.48;;;7.72;;
68821;SDS011;55834;50.870;4.606;2024-01-25T10:06:50;13.98;;;7.20;;
68821;SDS011;55834;50.870;4.606;2024-01-25T10:09:15;15.68;;;6.07;;
68821;SDS011;55834;50.870;4.606;2024-01-25T10:11:40;18.03;;;7.50;;
68821;SDS011;55834;50.870;4.606;2024-01-25T10:14:06;16.45;;;8.88;;
68821;SDS011;55834;50.870;4.606;2024-01-25T10:16:33;16.77;;;7.57;;
68821;SDS011;55834;50.870;4.606;2024-01-25T10:19:00;13.82;;;7.63;;
68821;SDS011;55834;50.870;4.606;2024-01-25T10:21:27;16.25;;;6.38;;
68821;SDS011;55834;50.870;4.606;2024-01-25T10:23:53;14.60;;;7.10;;
68821;SDS011;55834;50.870;4.606;2024-01-25T10:26:23;13.40;;;6.47;;
68821;SDS011;55834;50.870;4.606;2024-01-25T10:28:54;13.63;;;6.50;;
68821;SDS011;55834;50.870;4.606;2024-01-25T10:31:22;12.45;;;7.38;;
68821;SDS011;55834;50.870;4.606;2024-01-25T10:33:48;12.20;;;6.50;;
68821;SDS011;55834;50.870;4.606;2024-01-25T10:36:14;14.45;;;6.53;;
68821;SDS011;55834;50.870;4.606;2024-01-25T10:38:40;16.23;;;8.93;;
68821;SDS011;55834;50.870;4.606;2024-01-25T10:41:09;15.43;;;7.63;;
68821;SDS011;55834;50.870;4.606;2024-01-25T10:43:35;13.20;;;6.50;;
68821;SDS011;55834;50.870;4.606;2024-01-25T10:46:01;17.70;;;7.53;;
68821;SDS011;55834;50.870;4.606;2024-01-25T10:48:27;15.35;;;7.93;;
68821;SDS011;55834;50.870;4.606;2024-01-25T10:50:54;14.63;;;7.75;;
68821;SDS011;55834;50.870;4.606;2024-01-25T10:53:20;15.02;;;7.68;;
68821;SDS011;55834;50.870;4.606;2024-01-25T10:55:46;13.40;;;6.68;;
68821;SDS011;55834;50.870;4.606;2024-01-25T10:58:13;17.13;;;7.35;;
68821;SDS011;55834;50.870;4.606;2024-01-25T11:00:39;18.52;;;7.60;;
68821;SDS011;55834;50.870;4.606;2024-01-25T11:03:05;16.15;;;7.15;;
68821;SDS011;55834;50.870;4.606;2024-01-25T11:05:31;17.33;;;7.43;;
68821;SDS011;55834;50.870;4.606;2024-01-25T11:07:57;15.40;;;7.38;;
68821;SDS011;55834;50.870;4.606;2024-01-25T11:10:26;17.30;;;9.45;;
68821;SDS011;55834;50.870;4.606;2024-01-25T11:12:56;18.23;;;7.55;;
68821;SDS011;55834;50.870;4.606;2024-01-25T11:15:23;17.13;;;7.50;;
68821;SDS011;55834;50.870;4.606;2024-01-25T11:17:55;22.75;;;11.68;;
68821;SDS011;55834;50.870;4.606;2024-01-25T11:20:22;30.25;;;14.63;;
68821;SDS011;55834;50.870;4.606;2024-01-25T11:22:48;24.60;;;13.23;;
68821;SDS011;55834;50.870;4.606;2024-01-25T11:25:20;23.30;;;10.88;;
68821;SDS011;55834;50.870;4.606;2024-01-25T11:27:46;24.13;;;9.35;;
68821;SDS011;55834;50.870;4.606;2024-01-25T11:30:17;20.23;;;7.88;;
68821;SDS011;55834;50.870;4.606;2024-01-25T11:32:45;17.67;;;9.75;;
68821;SDS011;55834;50.870;4.606;2024-01-25T11:35:11;16.45;;;8.50;;
68821;SDS011;55834;50.870;4.606;2024-01-25T11:37:41;24.88;;;9.27;;
68821;SDS011;55834;50.870;4.606;2024-01-25T11:40:07;18.17;;;6.88;;
68821;SDS011;55834;50.870;4.606;2024-01-25T11:42:33;21.33;;;8.18;;
68821;SDS011;55834;50.870;4.606;2024-01-25T11:44:58;13.75;;;6.78;;
68821;SDS011;55834;50.870;4.606;2024-01-25T11:47:24;23.55;;;8.07;;
68821;SDS011;55834;50.870;4.606;2024-01-25T11:49:49;24.50;;;8.60;;
68821;SDS011;55834;50.870;4.606;2024-01-25T11:52:14;18.40;;;7.37;;
68821;SDS011;55834;50.870;4.606;2024-01-25T11:54:40;17.92;;;7.05;;
68821;SDS011;55834;50.870;4.606;2024-01-25T11:57:06;16.80;;;7.47;;
68821;SDS011;55834;50.870;4.606;2024-01-25T11:59:31;18.92;;;6.43;;
68821;SDS011;55834;50.870;4.606;2024-01-25T12:01:58;18.70;;;6.18;;
68821;SDS011;55834;50.870;4.606;2024-01-25T12:04:24;14.20;;;5.80;;
68821;SDS011;55834;50.870;4.606;2024-01-25T12:06:50;16.52;;;6.22;;
68821;SDS011;55834;50.870;4.606;2024-01-25T12:09:15;15.13;;;5.32;;
68821;SDS011;55834;50.870;4.606;2024-01-25T12:11:41;16.55;;;5.47;;
68821;SDS011;55834;50.870;4.606;2024-01-25T12:14:07;18.92;;;7.72;;
68821;SDS011;55834;50.870;4.606;2024-01-25T12:16:34;20.25;;;5.93;;
68821;SDS011;55834;50.870;4.606;2024-01-25T12:18:59;12.73;;;6.05;;
68821;SDS011;55834;50.870;4.606;2024-01-25T12:21:25;13.38;;;5.40;;
68821;SDS011;55834;50.870;4.606;2024-01-25T12:23:50;20.50;;;7.53;;
68821;SDS011;55834;50.870;4.606;2024-01-25T12:26:15;19.05;;;7.30;;
68821;SDS011;55834;50.870;4.606;2024-01-25T12:28:41;14.38;;;5.43;;
68821;SDS011;55834;50.870;4.606;2024-01-25T12:31:07;19.08;;;5.60;;
68821;SDS011;55834;50.870;4.606;2024-01-25T12:33:33;20.55;;;7.72;;
68821;SDS011;55834;50.870;4.606;2024-01-25T12:35:59;19.92;;;6.47;;
68821;SDS011;55834;50.870;4.606;2024-01-25T12:38:26;21.10;;;7.97;;
68821;SDS011;55834;50.870;4.606;2024-01-25T12:40:52;18.48;;;7.07;;
68821;SDS011;55834;50.870;4.606;2024-01-25T12:43:18;18.92;;;7.70;;
68821;SDS011;55834;50.870;4.606;2024-01-25T12:45:46;18.92;;;6.28;;
68821;SDS011;55834;50.870;4.606;2024-01-25T12:48:11;17.17;;;6.35;;
68821;SDS011;55834;50.870;4.606;2024-01-25T12:50:38;16.00;;;5.82;;
68821;SDS011;55834;50.870;4.606;2024-01-25T12:53:03;15.98;;;5.80;;
68821;SDS011;55834;50.870;4.606;2024-01-25T12:55:30;15.07;;;6.50;;
68821;SDS011;55834;50.870;4.606;2024-01-25T12:57:56;18.35;;;7.07;;
68821;SDS011;55834;50.870;4.606;2024-01-25T13:00:23;14.68;;;5.75;;
68821;SDS011;55834;50.870;4.606;2024-01-25T13:02:49;13.23;;;6.20;;
68821;SDS011;55834;50.870;4.606;2024-01-25T13:05:14;16.98;;;5.43;;
68821;SDS011;55834;50.870;4.606;2024-01-25T13:07:40;17.23;;;5.88;;
68821;SDS011;55834;50.870;4.606;2024-01-25T13:10:06;19.17;;;6.88;;
68821;SDS011;55834;50.870;4.606;2024-01-25T13:12:32;20.45;;;6.85;;
68821;SDS011;55834;50.870;4.606;2024-01-25T13:14:57;11.32;;;5.68;;
68821;SDS011;55834;50.870;4.606;2024-01-25T13:17:23;9.67;;;5.87;;
68821;SDS011;55834;50.870;4.606;2024-01-25T13:19:50;12.90;;;6.28;;
68821;SDS011;55834;50.870;4.606;2024-01-25T13:22:16;12.63;;;5.63;;
68821;SDS011;55834;50.870;4.606;2024-01-25T13:24:42;11.55;;;5.35;;
68821;SDS011;55834;50.870;4.606;2024-01-25T13:27:08;10.90;;;5.72;;
68821;SDS011;55834;50.870;4.606;2024-01-25T13:29:34;17.23;;;6.68;;
68821;SDS011;55834;50.870;4.606;2024-01-25T13:31:59;14.23;;;6.07;;
68821;SDS011;55834;50.870;4.606;2024-01-25T13:34:24;14.37;;;5.53;;
68821;SDS011;55834;50.870;4.606;2024-01-25T13:36:50;9.07;;;4.67;;
68821;SDS011;55834;50.870;4.606;2024-01-25T13:39:15;9.57;;;4.13;;
68821;SDS011;55834;50.870;4.606;2024-01-25T13:41:40;13.10;;;5.23;;
68821;SDS011;55834;50.870;4.606;2024-01-25T13:44:06;9.82;;;5.50;;
68821;SDS011;55834;50.870;4.606;2024-01-25T13:46:31;7.80;;;3.87;;
68821;SDS011;55834;50.870;4.606;2024-01-25T13:48:57;9.90;;;4.93;;
68821;SDS011;55834;50.870;4.606;2024-01-25T13:51:22;8.23;;;4.77;;
68821;SDS011;55834;50.870;4.606;2024-01-25T13:53:47;11.93;;;4.43;;
68821;SDS011;55834;50.870;4.606;2024-01-25T13:56:14;8.55;;;4.95;;
68821;SDS011;55834;50.870;4.606;2024-01-25T13:58:39;11.93;;;4.45;;
68821;SDS011;55834;50.870;4.606;2024-01-25T14:01:05;12.27;;;4.93;;
68821;SDS011;55834;50.870;4.606;2024-01-25T14:03:30;7.15;;;3.90;;
68821;SDS011;55834;50.870;4.606;2024-01-25T14:05:56;10.60;;;3.75;;
68821;SDS011;55834;50.870;4.606;2024-01-25T14:08:22;7.85;;;3.63;;
68821;SDS011;55834;50.870;4.606;2024-01-25T14:10:48;4.22;;;2.95;;
68821;SDS011;55834;50.870;4.606;2024-01-25T14:13:13;9.52;;;3.60;;
68821;SDS011;55834;50.870;4.606;2024-01-25T14:15:39;6.40;;;3.17;;
68821;SDS011;55834;50.870;4.606;2024-01-25T14:18:04;7.47;;;4.40;;
68821;SDS011;55834;50.870;4.606;2024-01-25T14:20:30;8.27;;;3.38;;
68821;SDS011;55834;50.870;4.606;2024-01-25T14:22:55;7.25;;;3.20;;
68821;SDS011;55834;50.870;4.606;2024-01-25T14:25:20;7.23;;;2.93;;
68821;SDS011;55834;50.870;4.606;2024-01-25T14:27:46;5.35;;;3.17;;
68821;SDS011;55834;50.870;4.606;2024-01-25T14:30:13;3.95;;;2.40;;